sensor_id;sensor_type;location;lat;lon;timestamp;pressure;altitude;pressure_sealevel;temperature;humidity
15662;BME280;7931;52.274;10.470;2022-08-03T00:01:26;100609.03;;;20.75;89.23
15662;BME280;7931;52.274;10.470;2022-08-03T00:03:52;100611.47;;;20.62;90.75
15662;BME280;7931;52.274;10.470;2022-08-03T00:06:17;100607.59;;;20.57;90.27
15662;BME280;7931;52.274;10.470;2022-08-03T00:08:42;100613.22;;;20.47;92.34
15662;BME280;7931;52.274;10.470;2022-08-03T00:11:08;100608.97;;;20.52;91.38
15662;BME280;7931;52.274;10.470;2022-08-03T00:13:34;100608.97;;;20.52;92.95
15662;BME280;7931;52.274;10.470;2022-08-03T00:15:59;100610.16;;;20.42;93.29
15662;BME280;7931;52.274;10.470;2022-08-03T00:18:24;100602.06;;;20.34;94.71
15662;BME280;7931;52.274;10.470;2022-08-03T00:20:50;100597.69;;;20.33;94.61
15662;BME280;7931;52.274;10.470;2022-08-03T00:23:15;100603.75;;;20.35;93.65
15662;BME280;7931;52.274;10.470;2022-08-03T00:25:41;100603.09;;;20.33;93.55
15662;BME280;7931;52.274;10.470;2022-08-03T00:28:07;100598.09;;;20.21;96.04
15662;BME280;7931;52.274;10.470;2022-08-03T00:30:32;100603.97;;;20.25;96.03
15662;BME280;7931;52.274;10.470;2022-08-03T00:32:58;100598.13;;;20.05;99.29
15662;BME280;7931;52.274;10.470;2022-08-03T00:35:24;100598.13;;;20.05;99.13
15662;BME280;7931;52.274;10.470;2022-08-03T00:37:49;100594.56;;;20.05;98.79
15662;BME280;7931;52.274;10.470;2022-08-03T00:40:16;100595.47;;;19.97;100.00
15662;BME280;7931;52.274;10.470;2022-08-03T00:42:53;100599.84;;;19.82;99.57
15662;BME280;7931;52.274;10.470;2022-08-03T00:45:20;100597.84;;;19.84;100.00
15662;BME280;7931;52.274;10.470;2022-08-03T00:47:47;100607.28;;;19.88;100.00
15662;BME280;7931;52.274;10.470;2022-08-03T00:50:13;100592.94;;;19.87;100.00
15662;BME280;7931;52.274;10.470;2022-08-03T00:52:38;100593.47;;;19.83;100.00
15662;BME280;7931;52.274;10.470;2022-08-03T00:55:04;100594.31;;;19.75;100.00
15662;BME280;7931;52.274;10.470;2022-08-03T00:57:31;100592.78;;;19.72;100.00
15662;BME280;7931;52.274;10.470;2022-08-03T00:59:58;100592.13;;;19.70;100.00
15662;BME280;7931;52.274;10.470;2022-08-03T01:02:27;100587.69;;;19.53;100.00
15662;BME280;7931;52.274;10.470;2022-08-03T01:04:53;100583.00;;;19.47;100.00
15662;BME280;7931;52.274;10.470;2022-08-03T01:07:32;100583.34;;;19.44;100.00
15662;BME280;7931;52.274;10.470;2022-08-03T01:10:31;100581.63;;;19.43;100.00
15662;BME280;7931;52.274;10.470;2022-08-03T01:16:11;100580.97;;;19.41;100.00
15662;BME280;7931;52.274;10.470;2022-08-03T01:24:13;100588.91;;;19.26;100.00
15662;BME280;7931;52.274;10.470;2022-08-03T01:27:02;100586.53;;;19.23;100.00
15662;BME280;7931;52.274;10.470;2022-08-03T01:29:39;100580.97;;;19.16;100.00
15662;BME280;7931;52.274;10.470;2022-08-03T01:32:11;100589.25;;;19.15;100.00
15662;BME280;7931;52.274;10.470;2022-08-03T01:34:50;100580.47;;;19.13;100.00
15662;BME280;7931;52.274;10.470;2022-08-03T01:37:21;100577.94;;;19.11;100.00
15662;BME280;7931;52.274;10.470;2022-08-03T01:39:50;100578.25;;;19.08;100.00
15662;BME280;7931;52.274;10.470;2022-08-03T01:42:19;100581.63;;;19.02;100.00
15662;BME280;7931;52.274;10.470;2022-08-03T01:44:46;100582.66;;;19.01;100.00
15662;BME280;7931;52.274;10.470;2022-08-03T01:47:14;100584.66;;;18.99;100.00
15662;BME280;7931;52.274;10.470;2022-08-03T01:49:42;100586.84;;;19.04;100.00
15662;BME280;7931;52.274;10.470;2022-08-03T01:52:10;100580.28;;;18.98;100.00
15662;BME280;7931;52.274;10.470;2022-08-03T01:54:42;100583.63;;;18.92;100.00
15662;BME280;7931;52.274;10.470;2022-08-03T01:57:08;100583.31;;;18.87;100.00
15662;BME280;7931;52.274;10.470;2022-08-03T01:59:35;100586.47;;;18.90;100.00
15662;BME280;7931;52.274;10.470;2022-08-03T02:02:03;100583.97;;;18.89;100.00
15662;BME280;7931;52.274;10.470;2022-08-03T02:04:29;100583.44;;;18.85;100.00
15662;BME280;7931;52.274;10.470;2022-08-03T02:06:55;100581.59;;;18.78;100.00
15662;BME280;7931;52.274;10.470;2022-08-03T02:09:22;100581.59;;;18.78;100.00
15662;BME280;7931;52.274;10.470;2022-08-03T02:11:48;100585.66;;;18.82;100.00
15662;BME280;7931;52.274;10.470;2022-08-03T02:14:16;100579.25;;;18.83;100.00
15662;BME280;7931;52.274;10.470;2022-08-03T02:16:44;100583.88;;;18.64;100.00
15662;BME280;7931;52.274;10.470;2022-08-03T02:19:10;100586.22;;;18.59;100.00
15662;BME280;7931;52.274;10.470;2022-08-03T02:21:36;100585.72;;;18.64;100.00
15662;BME280;7931;52.274;10.470;2022-08-03T02:24:03;100589.44;;;18.63;100.00
15662;BME280;7931;52.274;10.470;2022-08-03T02:26:30;100591.66;;;18.67;100.00
15662;BME280;7931;52.274;10.470;2022-08-03T02:29:08;100575.69;;;18.74;100.00
15662;BME280;7931;52.274;10.470;2022-08-03T02:31:36;100581.19;;;18.64;100.00
15662;BME280;7931;52.274;10.470;2022-08-03T02:34:07;100574.94;;;18.64;100.00
15662;BME280;7931;52.274;10.470;2022-08-03T02:36:36;100573.41;;;18.61;100.00
15662;BME280;7931;52.274;10.470;2022-08-03T02:39:04;100575.13;;;18.62;100.00
15662;BME280;7931;52.274;10.470;2022-08-03T02:41:36;100571.06;;;18.58;100.00
15662;BME280;7931;52.274;10.470;2022-08-03T02:44:07;100579.47;;;18.55;100.00
15662;BME280;7931;52.274;10.470;2022-08-03T02:46:36;100579.94;;;18.42;100.00
15662;BME280;7931;52.274;10.470;2022-08-03T02:49:03;100574.50;;;18.34;100.00
15662;BME280;7931;52.274;10.470;2022-08-03T02:51:31;100572.50;;;18.36;100.00
15662;BME280;7931;52.274;10.470;2022-08-03T02:53:59;100576.06;;;18.45;100.00
15662;BME280;7931;52.274;10.470;2022-08-03T02:56:26;100560.88;;;18.36;100.00
15662;BME280;7931;52.274;10.470;2022-08-03T02:58:53;100568.59;;;18.31;100.00
15662;BME280;7931;52.274;10.470;2022-08-03T03:01:20;100568.28;;;18.34;100.00
15662;BME280;7931;52.274;10.470;2022-08-03T03:03:48;100572.66;;;18.35;100.00
15662;BME280;7931;52.274;10.470;2022-08-03T03:06:16;100569.47;;;18.39;100.00
15662;BME280;7931;52.274;10.470;2022-08-03T03:08:41;100574.69;;;18.33;100.00
15662;BME280;7931;52.274;10.470;2022-08-03T03:11:09;100562.69;;;18.27;100.00
15662;BME280;7931;52.274;10.470;2022-08-03T03:13:35;100564.41;;;18.28;100.00
15662;BME280;7931;52.274;10.470;2022-08-03T03:16:03;100558.47;;;18.24;100.00
15662;BME280;7931;52.274;10.470;2022-08-03T03:18:32;100553.28;;;18.31;100.00
15662;BME280;7931;52.274;10.470;2022-08-03T03:20:59;100555.59;;;18.26;100.00
15662;BME280;7931;52.274;10.470;2022-08-03T03:23:26;100554.78;;;18.26;100.00
15662;BME280;7931;52.274;10.470;2022-08-03T03:25:53;100553.09;;;18.24;100.00
15662;BME280;7931;52.274;10.470;2022-08-03T03:28:22;100559.13;;;18.18;100.00
15662;BME280;7931;52.274;10.470;2022-08-03T03:30:48;100565.84;;;18.22;100.00
15662;BME280;7931;52.274;10.470;2022-08-03T03:33:14;100563.34;;;18.21;100.00
15662;BME280;7931;52.274;10.470;2022-08-03T03:35:40;100557.94;;;18.21;100.00
15662;BME280;7931;52.274;10.470;2022-08-03T03:38:07;100567.03;;;18.20;100.00
15662;BME280;7931;52.274;10.470;2022-08-03T03:40:34;100569.56;;;18.21;100.00
15662;BME280;7931;52.274;10.470;2022-08-03T03:43:00;100572.88;;;18.07;100.00
15662;BME280;7931;52.274;10.470;2022-08-03T03:45:25;100571.34;;;18.05;100.00
15662;BME280;7931;52.274;10.470;2022-08-03T03:47:51;100572.19;;;18.05;100.00
15662;BME280;7931;52.274;10.470;2022-08-03T03:50:17;100567.81;;;18.04;100.00
15662;BME280;7931;52.274;10.470;2022-08-03T03:52:43;100570.63;;;17.94;100.00
15662;BME280;7931;52.274;10.470;2022-08-03T03:55:09;100568.88;;;17.85;100.00
15662;BME280;7931;52.274;10.470;2022-08-03T03:57:34;100566.97;;;18.04;100.00
15662;BME280;7931;52.274;10.470;2022-08-03T03:59:59;100565.50;;;17.83;100.00
15662;BME280;7931;52.274;10.470;2022-08-03T04:02:25;100575.53;;;17.99;100.00
15662;BME280;7931;52.274;10.470;2022-08-03T04:04:50;100564.94;;;18.06;100.00
15662;BME280;7931;52.274;10.470;2022-08-03T04:08:06;100569.28;;;17.98;100.00
15662;BME280;7931;52.274;10.470;2022-08-03T04:13:55;100572.47;;;17.94;100.00
15662;BME280;7931;52.274;10.470;2022-08-03T04:16:26;100573.31;;;17.94;100.00
15662;BME280;7931;52.274;10.470;2022-08-03T04:18:59;100576.84;;;17.95;100.00
15662;BME280;7931;52.274;10.470;2022-08-03T04:21:27;100571.50;;;18.03;100.00
15662;BME280;7931;52.274;10.470;2022-08-03T04:23:58;100572.56;;;18.10;100.00
15662;BME280;7931;52.274;10.470;2022-08-03T04:26:26;100570.03;;;18.09;100.00
15662;BME280;7931;52.274;10.470;2022-08-03T04:28:53;100571.22;;;18.14;100.00
15662;BME280;7931;52.274;10.470;2022-08-03T04:31:21;100574.34;;;18.36;100.00
15662;BME280;7931;52.274;10.470;2022-08-03T04:33:47;100575.00;;;18.30;100.00
15662;BME280;7931;52.274;10.470;2022-08-03T04:36:19;100579.84;;;18.26;100.00
15662;BME280;7931;52.274;10.470;2022-08-03T04:41:26;100588.78;;;18.27;100.00
15662;BME280;7931;52.274;10.470;2022-08-03T04:43:57;100588.81;;;18.35;100.00
15662;BME280;7931;52.274;10.470;2022-08-03T04:46:31;100592.19;;;18.37;100.00
15662;BME280;7931;52.274;10.470;2022-08-03T04:48:57;100591.94;;;18.56;100.00
15662;BME280;7931;52.274;10.470;2022-08-03T04:51:23;100590.66;;;18.68;100.00
15662;BME280;7931;52.274;10.470;2022-08-03T04:53:49;100592.66;;;18.66;100.00
15662;BME280;7931;52.274;10.470;2022-08-03T04:56:14;100586.56;;;18.64;100.00
15662;BME280;7931;52.274;10.470;2022-08-03T04:58:40;100590.03;;;18.83;100.00
15662;BME280;7931;52.274;10.470;2022-08-03T05:01:05;100585.00;;;18.96;100.00
15662;BME280;7931;52.274;10.470;2022-08-03T05:03:31;100592.94;;;19.06;100.00
15662;BME280;7931;52.274;10.470;2022-08-03T05:05:57;100595.47;;;19.07;100.00
15662;BME280;7931;52.274;10.470;2022-08-03T05:08:22;100593.28;;;19.27;100.00
15662;BME280;7931;52.274;10.470;2022-08-03T05:10:47;100588.56;;;19.37;100.00
15662;BME280;7931;52.274;10.470;2022-08-03T05:13:13;100603.06;;;19.36;100.00
15662;BME280;7931;52.274;10.470;2022-08-03T05:15:39;100598.34;;;19.46;99.21
15662;BME280;7931;52.274;10.470;2022-08-03T05:18:04;100599.56;;;19.60;98.24
15662;BME280;7931;52.274;10.470;2022-08-03T05:20:30;100600.53;;;19.67;99.38
15662;BME280;7931;52.274;10.470;2022-08-03T05:22:56;100599.88;;;19.65;99.73
15662;BME280;7931;52.274;10.470;2022-08-03T05:25:23;100604.41;;;19.89;96.50
15662;BME280;7931;52.274;10.470;2022-08-03T05:27:48;100594.56;;;20.05;94.15
15662;BME280;7931;52.274;10.470;2022-08-03T05:30:14;100584.94;;;20.10;93.40
15662;BME280;7931;52.274;10.470;2022-08-03T05:32:40;100593.53;;;20.22;92.84
15662;BME280;7931;52.274;10.470;2022-08-03T05:35:05;100593.84;;;20.27;91.15
15662;BME280;7931;52.274;10.470;2022-08-03T05:37:31;100586.56;;;20.27;93.73
15662;BME280;7931;52.274;10.470;2022-08-03T05:39:56;100591.91;;;20.44;89.80
15662;BME280;7931;52.274;10.470;2022-08-03T05:42:21;100588.88;;;20.47;88.41
15662;BME280;7931;52.274;10.470;2022-08-03T05:44:47;100592.34;;;20.64;88.65
15662;BME280;7931;52.274;10.470;2022-08-03T05:47:12;100593.09;;;20.81;87.41
15662;BME280;7931;52.274;10.470;2022-08-03T05:49:37;100588.75;;;20.71;89.13
15662;BME280;7931;52.274;10.470;2022-08-03T05:52:03;100583.72;;;20.91;85.78
15662;BME280;7931;52.274;10.470;2022-08-03T05:54:29;100579.16;;;20.92;86.56
15662;BME280;7931;52.274;10.470;2022-08-03T05:56:54;100585.06;;;21.18;84.80
15662;BME280;7931;52.274;10.470;2022-08-03T05:59:19;100585.31;;;21.32;83.17
15662;BME280;7931;52.274;10.470;2022-08-03T06:01:46;100588.31;;;21.37;83.72
15662;BME280;7931;52.274;10.470;2022-08-03T06:04:11;100584.06;;;21.42;82.49
15662;BME280;7931;52.274;10.470;2022-08-03T06:06:36;100583.13;;;21.50;82.02
15662;BME280;7931;52.274;10.470;2022-08-03T06:09:03;100583.94;;;21.73;81.68
15662;BME280;7931;52.274;10.470;2022-08-03T06:11:28;100579.34;;;21.74;81.24
15662;BME280;7931;52.274;10.470;2022-08-03T06:13:54;100593.59;;;21.91;78.47
15662;BME280;7931;52.274;10.470;2022-08-03T06:16:19;100582.56;;;22.07;77.28
15662;BME280;7931;52.274;10.470;2022-08-03T06:18:45;100585.09;;;22.23;75.69
15662;BME280;7931;52.274;10.470;2022-08-03T06:21:10;100575.75;;;22.26;75.58
15662;BME280;7931;52.274;10.470;2022-08-03T06:23:35;100586.63;;;22.26;74.97
15662;BME280;7931;52.274;10.470;2022-08-03T06:26:01;100586.41;;;22.42;73.39
15662;BME280;7931;52.274;10.470;2022-08-03T06:28:26;100587.69;;;22.61;72.28
15662;BME280;7931;52.274;10.470;2022-08-03T06:30:52;100587.06;;;22.80;72.19
15662;BME280;7931;52.274;10.470;2022-08-03T06:33:18;100589.31;;;22.92;69.60
15662;BME280;7931;52.274;10.470;2022-08-03T06:35:43;100583.78;;;22.85;69.23
15662;BME280;7931;52.274;10.470;2022-08-03T06:38:09;100583.31;;;23.18;67.37
15662;BME280;7931;52.274;10.470;2022-08-03T06:40:35;100598.88;;;23.30;67.19
15662;BME280;7931;52.274;10.470;2022-08-03T06:43:05;100594.63;;;23.43;66.97
15662;BME280;7931;52.274;10.470;2022-08-03T06:45:31;100601.97;;;23.49;66.29
15662;BME280;7931;52.274;10.470;2022-08-03T06:48:05;100593.94;;;23.62;65.58
15662;BME280;7931;52.274;10.470;2022-08-03T06:50:32;100593.00;;;23.70;65.64
15662;BME280;7931;52.274;10.470;2022-08-03T06:52:58;100601.06;;;23.84;65.26
15662;BME280;7931;52.274;10.470;2022-08-03T06:55:24;100598.72;;;24.09;63.52
15662;BME280;7931;52.274;10.470;2022-08-03T06:57:50;100600.34;;;24.04;64.73
15662;BME280;7931;52.274;10.470;2022-08-03T07:00:15;100603.81;;;24.26;64.03
15662;BME280;7931;52.274;10.470;2022-08-03T07:02:41;100596.81;;;24.38;63.32
15662;BME280;7931;52.274;10.470;2022-08-03T07:05:07;100593.50;;;24.49;61.61
15662;BME280;7931;52.274;10.470;2022-08-03T07:07:33;100609.50;;;24.72;62.01
15662;BME280;7931;52.274;10.470;2022-08-03T07:09:58;100607.84;;;24.71;60.89
15662;BME280;7931;52.274;10.470;2022-08-03T07:12:27;100606.63;;;24.94;60.56
15662;BME280;7931;52.274;10.470;2022-08-03T07:14:54;100607.97;;;25.11;61.43
15662;BME280;7931;52.274;10.470;2022-08-03T07:17:20;100612.19;;;25.27;60.07
15662;BME280;7931;52.274;10.470;2022-08-03T07:19:45;100613.25;;;25.46;58.40
15662;BME280;7931;52.274;10.470;2022-08-03T07:22:11;100608.44;;;25.54;58.45
15662;BME280;7931;52.274;10.470;2022-08-03T07:24:36;100613.03;;;25.67;57.83
15662;BME280;7931;52.274;10.470;2022-08-03T07:27:02;100613.06;;;25.74;57.28
15662;BME280;7931;52.274;10.470;2022-08-03T07:29:27;100618.69;;;25.72;57.04
15662;BME280;7931;52.274;10.470;2022-08-03T07:31:53;100625.03;;;25.79;56.48
15662;BME280;7931;52.274;10.470;2022-08-03T07:34:18;100618.50;;;26.00;55.61
15662;BME280;7931;52.274;10.470;2022-08-03T07:36:43;100619.78;;;26.11;54.63
15662;BME280;7931;52.274;10.470;2022-08-03T07:39:09;100623.69;;;26.28;53.46
15662;BME280;7931;52.274;10.470;2022-08-03T07:41:35;100630.81;;;26.49;53.31
15662;BME280;7931;52.274;10.470;2022-08-03T07:44:00;100635.16;;;26.70;52.76
15662;BME280;7931;52.274;10.470;2022-08-03T07:46:25;100626.31;;;26.75;51.90
15662;BME280;7931;52.274;10.470;2022-08-03T07:48:51;100634.69;;;26.80;51.96
15662;BME280;7931;52.274;10.470;2022-08-03T07:51:17;100621.22;;;26.85;52.66
15662;BME280;7931;52.274;10.470;2022-08-03T07:53:42;100631.84;;;27.00;53.14
15662;BME280;7931;52.274;10.470;2022-08-03T07:56:08;100624.44;;;27.07;52.19
15662;BME280;7931;52.274;10.470;2022-08-03T07:58:34;100625.09;;;27.02;51.60
15662;BME280;7931;52.274;10.470;2022-08-03T08:01:00;100626.97;;;27.15;51.30
15662;BME280;7931;52.274;10.470;2022-08-03T08:03:25;100624.00;;;27.16;51.10
15662;BME280;7931;52.274;10.470;2022-08-03T08:05:51;100624.31;;;27.33;51.05
15662;BME280;7931;52.274;10.470;2022-08-03T08:08:18;100620.44;;;27.48;50.27
15662;BME280;7931;52.274;10.470;2022-08-03T08:10:44;100615.63;;;27.68;49.75
15662;BME280;7931;52.274;10.470;2022-08-03T08:13:10;100620.94;;;27.88;48.83
15662;BME280;7931;52.274;10.470;2022-08-03T08:15:35;100618.13;;;27.95;47.25
15662;BME280;7931;52.274;10.470;2022-08-03T08:18:01;100616.06;;;28.15;46.98
15662;BME280;7931;52.274;10.470;2022-08-03T08:20:32;100614.03;;;28.29;46.83
15662;BME280;7931;52.274;10.470;2022-08-03T08:22:59;100616.25;;;28.38;46.13
15662;BME280;7931;52.274;10.470;2022-08-03T08:25:25;100613.88;;;28.60;46.28
15662;BME280;7931;52.274;10.470;2022-08-03T08:27:51;100608.91;;;28.87;46.12
15662;BME280;7931;52.274;10.470;2022-08-03T08:30:19;100617.25;;;29.11;44.74
15662;BME280;7931;52.274;10.470;2022-08-03T08:32:45;100625.03;;;29.26;44.90
15662;BME280;7931;52.274;10.470;2022-08-03T08:35:11;100623.59;;;29.23;45.21
15662;BME280;7931;52.274;10.470;2022-08-03T08:37:37;100618.38;;;29.33;44.58
15662;BME280;7931;52.274;10.470;2022-08-03T08:40:04;100613.34;;;29.60;44.28
15662;BME280;7931;52.274;10.470;2022-08-03T08:42:30;100613.78;;;29.57;43.33
15662;BME280;7931;52.274;10.470;2022-08-03T08:44:56;100612.75;;;29.70;44.09
15662;BME280;7931;52.274;10.470;2022-08-03T08:47:25;100611.78;;;29.88;43.73
15662;BME280;7931;52.274;10.470;2022-08-03T08:49:54;100618.59;;;30.09;43.70
15662;BME280;7931;52.274;10.470;2022-08-03T08:52:27;100613.59;;;29.94;43.66
15662;BME280;7931;52.274;10.470;2022-08-03T08:55:05;100618.81;;;30.07;43.04
15662;BME280;7931;52.274;10.470;2022-08-03T08:57:37;100613.72;;;29.99;43.37
15662;BME280;7931;52.274;10.470;2022-08-03T09:00:08;100617.16;;;30.06;43.78
15662;BME280;7931;52.274;10.470;2022-08-03T09:02:35;100610.94;;;30.11;42.85
15662;BME280;7931;52.274;10.470;2022-08-03T09:05:02;100614.34;;;30.13;43.05
15662;BME280;7931;52.274;10.470;2022-08-03T09:07:28;100615.13;;;30.25;42.48
15662;BME280;7931;52.274;10.470;2022-08-03T09:09:54;100608.88;;;30.53;42.49
15662;BME280;7931;52.274;10.470;2022-08-03T09:12:19;100612.56;;;30.70;41.84
15662;BME280;7931;52.274;10.470;2022-08-03T09:14:45;100614.09;;;30.78;40.96
15662;BME280;7931;52.274;10.470;2022-08-03T09:17:10;100613.41;;;30.59;41.46
15662;BME280;7931;52.274;10.470;2022-08-03T09:19:36;100607.41;;;30.74;41.13
15662;BME280;7931;52.274;10.470;2022-08-03T09:22:12;100600.81;;;31.04;40.76
15662;BME280;7931;52.274;10.470;2022-08-03T09:25:00;100605.19;;;31.16;40.42
15662;BME280;7931;52.274;10.470;2022-08-03T09:27:27;100606.91;;;31.51;40.47
15662;BME280;7931;52.274;10.470;2022-08-03T09:29:53;100608.84;;;31.67;39.54
15662;BME280;7931;52.274;10.470;2022-08-03T09:32:20;100607.19;;;31.83;39.64
15662;BME280;7931;52.274;10.470;2022-08-03T09:34:51;100604.41;;;32.00;39.56
15662;BME280;7931;52.274;10.470;2022-08-03T09:37:19;100605.69;;;31.92;38.64
15662;BME280;7931;52.274;10.470;2022-08-03T09:39:45;100598.91;;;31.66;39.39
15662;BME280;7931;52.274;10.470;2022-08-03T09:42:15;100606.91;;;31.51;38.13
15662;BME280;7931;52.274;10.470;2022-08-03T09:44:44;100597.56;;;32.03;38.60
15662;BME280;7931;52.274;10.470;2022-08-03T09:47:11;100603.41;;;32.28;37.43
15662;BME280;7931;52.274;10.470;2022-08-03T09:49:38;100604.81;;;32.09;38.13
15662;BME280;7931;52.274;10.470;2022-08-03T09:52:14;100606.19;;;32.28;37.55
15662;BME280;7931;52.274;10.470;2022-08-03T09:54:41;100601.56;;;32.34;37.47
15662;BME280;7931;52.274;10.470;2022-08-03T09:57:07;100600.13;;;32.70;37.38
15662;BME280;7931;52.274;10.470;2022-08-03T09:59:32;100607.09;;;32.99;36.57
15662;BME280;7931;52.274;10.470;2022-08-03T10:01:58;100604.16;;;32.84;36.59
15662;BME280;7931;52.274;10.470;2022-08-03T10:04:24;100599.66;;;32.78;36.22
15662;BME280;7931;52.274;10.470;2022-08-03T10:07:11;100599.97;;;32.82;37.13
15662;BME280;7931;52.274;10.470;2022-08-03T10:09:37;100594.22;;;32.83;36.82
15662;BME280;7931;52.274;10.470;2022-08-03T10:12:07;100600.84;;;32.87;36.30
15662;BME280;7931;52.274;10.470;2022-08-03T10:14:35;100599.59;;;33.22;36.36
15662;BME280;7931;52.274;10.470;2022-08-03T10:17:00;100606.31;;;33.36;36.25
15662;BME280;7931;52.274;10.470;2022-08-03T10:19:26;100610.19;;;33.35;35.27
15662;BME280;7931;52.274;10.470;2022-08-03T10:21:56;100604.47;;;33.42;34.87
15662;BME280;7931;52.274;10.470;2022-08-03T10:24:27;100594.19;;;33.32;35.81
15662;BME280;7931;52.274;10.470;2022-08-03T10:27:05;100597.81;;;33.38;35.15
15662;BME280;7931;52.274;10.470;2022-08-03T10:29:43;100595.44;;;33.19;35.12
15662;BME280;7931;52.274;10.470;2022-08-03T10:32:21;100585.72;;;33.17;35.68
15662;BME280;7931;52.274;10.470;2022-08-03T10:34:49;100589.25;;;33.66;35.19
15662;BME280;7931;52.274;10.470;2022-08-03T10:37:15;100591.69;;;33.63;34.52
15662;BME280;7931;52.274;10.470;2022-08-03T10:39:43;100588.69;;;33.69;34.92
15662;BME280;7931;52.274;10.470;2022-08-03T10:42:25;100591.78;;;33.78;34.31
15662;BME280;7931;52.274;10.470;2022-08-03T10:45:01;100586.97;;;33.95;34.30
15662;BME280;7931;52.274;10.470;2022-08-03T10:47:29;100574.53;;;33.98;34.86
15662;BME280;7931;52.274;10.470;2022-08-03T10:49:55;100580.00;;;34.40;33.88
15662;BME280;7931;52.274;10.470;2022-08-03T10:52:20;100586.78;;;34.12;32.90
15662;BME280;7931;52.274;10.470;2022-08-03T10:54:46;100565.25;;;33.72;35.20
15662;BME280;7931;52.274;10.470;2022-08-03T10:57:50;100581.84;;;34.19;33.46
15662;BME280;7931;52.274;10.470;2022-08-03T11:03:19;100568.34;;;34.28;32.70
15662;BME280;7931;52.274;10.470;2022-08-03T11:05:46;100569.50;;;34.42;32.91
15662;BME280;7931;52.274;10.470;2022-08-03T11:08:17;100560.25;;;34.11;33.23
15662;BME280;7931;52.274;10.470;2022-08-03T11:10:44;100566.91;;;34.78;32.26
15662;BME280;7931;52.274;10.470;2022-08-03T11:13:20;100573.34;;;34.31;32.96
15662;BME280;7931;52.274;10.470;2022-08-03T11:15:49;100572.38;;;34.58;32.06
15662;BME280;7931;52.274;10.470;2022-08-03T11:18:16;100567.28;;;34.34;32.25
15662;BME280;7931;52.274;10.470;2022-08-03T11:23:14;100555.06;;;34.20;33.34
15662;BME280;7931;52.274;10.470;2022-08-03T11:26:15;100558.00;;;34.66;33.00
15662;BME280;7931;52.274;10.470;2022-08-03T11:28:43;100562.31;;;34.41;32.31
15662;BME280;7931;52.274;10.470;2022-08-03T11:34:08;100559.53;;;34.36;31.92
15662;BME280;7931;52.274;10.470;2022-08-03T11:39:48;100551.81;;;34.38;32.43
15662;BME280;7931;52.274;10.470;2022-08-03T11:44:59;100547.25;;;34.80;31.93
15662;BME280;7931;52.274;10.470;2022-08-03T11:47:27;100549.53;;;35.03;31.03
15662;BME280;7931;52.274;10.470;2022-08-03T11:49:55;100550.06;;;35.05;30.67
15662;BME280;7931;52.274;10.470;2022-08-03T11:52:23;100548.16;;;35.31;31.04
15662;BME280;7931;52.274;10.470;2022-08-03T11:54:53;100560.06;;;35.37;30.42
15662;BME280;7931;52.274;10.470;2022-08-03T11:57:33;100554.25;;;35.69;30.20
15662;BME280;7931;52.274;10.470;2022-08-03T11:59:58;100547.34;;;35.61;30.55
15662;BME280;7931;52.274;10.470;2022-08-03T12:02:24;100543.16;;;35.33;30.47
15662;BME280;7931;52.274;10.470;2022-08-03T12:04:55;100545.69;;;35.40;31.37
15662;BME280;7931;52.274;10.470;2022-08-03T12:07:27;100540.97;;;35.56;30.39
15662;BME280;7931;52.274;10.470;2022-08-03T12:10:06;100542.56;;;35.82;30.27
15662;BME280;7931;52.274;10.470;2022-08-03T12:12:32;100536.47;;;36.00;29.84
15662;BME280;7931;52.274;10.470;2022-08-03T12:14:57;100532.69;;;35.45;31.09
15662;BME280;7931;52.274;10.470;2022-08-03T12:17:23;100545.91;;;35.84;30.51
15662;BME280;7931;52.274;10.470;2022-08-03T12:19:48;100549.25;;;35.71;30.77
15662;BME280;7931;52.274;10.470;2022-08-03T12:22:14;100544.81;;;35.80;30.47
15662;BME280;7931;52.274;10.470;2022-08-03T12:24:44;100541.50;;;35.68;29.91
15662;BME280;7931;52.274;10.470;2022-08-03T12:27:09;100547.59;;;35.75;29.38
15662;BME280;7931;52.274;10.470;2022-08-03T12:29:35;100540.31;;;36.04;29.48
15662;BME280;7931;52.274;10.470;2022-08-03T12:32:01;100544.56;;;36.57;29.51
15662;BME280;7931;52.274;10.470;2022-08-03T12:34:46;100536.09;;;36.77;28.76
15662;BME280;7931;52.274;10.470;2022-08-03T12:37:12;100529.13;;;36.85;28.62
15662;BME280;7931;52.274;10.470;2022-08-03T12:39:37;100526.28;;;36.56;28.82
15662;BME280;7931;52.274;10.470;2022-08-03T12:42:03;100528.69;;;35.97;30.25
15662;BME280;7931;52.274;10.470;2022-08-03T12:44:30;100523.75;;;34.72;31.38
15662;BME280;7931;52.274;10.470;2022-08-03T12:46:57;100520.47;;;35.41;30.76
15662;BME280;7931;52.274;10.470;2022-08-03T12:49:23;100524.63;;;35.34;30.46
15662;BME280;7931;52.274;10.470;2022-08-03T12:54:23;100508.16;;;36.14;29.32
15662;BME280;7931;52.274;10.470;2022-08-03T12:57:02;100516.91;;;36.31;28.74
15662;BME280;7931;52.274;10.470;2022-08-03T12:59:30;100519.41;;;36.43;28.75
15662;BME280;7931;52.274;10.470;2022-08-03T13:01:56;100509.66;;;36.40;29.36
15662;BME280;7931;52.274;10.470;2022-08-03T13:04:34;100511.81;;;35.94;29.56
15662;BME280;7931;52.274;10.470;2022-08-03T13:07:02;100507.97;;;35.74;29.72
15662;BME280;7931;52.274;10.470;2022-08-03T13:09:29;100508.31;;;35.47;30.74
15662;BME280;7931;52.274;10.470;2022-08-03T13:12:16;100511.59;;;35.39;30.86
15662;BME280;7931;52.274;10.470;2022-08-03T13:14:43;100508.84;;;35.34;30.67
15662;BME280;7931;52.274;10.470;2022-08-03T13:17:10;100505.56;;;35.12;30.86
15662;BME280;7931;52.274;10.470;2022-08-03T13:19:36;100501.94;;;35.37;31.05
15662;BME280;7931;52.274;10.470;2022-08-03T13:22:12;100506.63;;;35.57;30.51
15662;BME280;7931;52.274;10.470;2022-08-03T13:24:38;100503.50;;;35.89;30.17